TimeHST,TemperatureF,Dew PointF,Humidity,Sea Level PressureIn,VisibilityMPH,Wind Direction,Wind SpeedMPH,Gust SpeedMPH,PrecipitationIn,Events,Conditions,WindDirDegrees,DateUTC
12:54 AM,68.0,61.0,78,30.20,10.0,ENE,10.4,16.1,N/A,,Partly Cloudy,70,2013-02-27 10:54:00
1:54 AM,69.1,62.1,78,30.17,10.0,ENE,9.2,-,0.00,Rain,Light Rain,60,2013-02-27 11:54:00
2:54 AM,68.0,63.0,84,30.15,10.0,ENE,5.8,-,0.00,Rain,Light Rain,60,2013-02-27 12:54:00
3:54 AM,69.1,61.0,75,30.14,10.0,NE,17.3,25.3,0.00,Rain,Light Rain,50,2013-02-27 13:54:00
4:54 AM,69.1,60.1,73,30.14,10.0,NE,15.0,27.6,0.00,,Clear,50,2013-02-27 14:54:00
5:54 AM,66.9,60.1,79,30.15,10.0,NE,12.7,-,N/A,,Clear,50,2013-02-27 15:54:00
6:54 AM,66.9,60.1,79,30.17,10.0,NE,13.8,-,N/A,,Partly Cloudy,40,2013-02-27 16:54:00
7:54 AM,70.0,61.0,73,30.19,10.0,NE,13.8,-,N/A,,Partly Cloudy,50,2013-02-27 17:54:00
8:54 AM,73.0,60.1,64,30.20,10.0,ENE,15.0,26.5,N/A,,Partly Cloudy,60,2013-02-27 18:54:00
9:54 AM,75.0,57.9,55,30.20,10.0,ENE,21.9,34.5,N/A,,Partly Cloudy,70,2013-02-27 19:54:00
10:54 AM,77.0,60.1,56,30.20,10.0,ENE,21.9,31.1,N/A,,Partly Cloudy,60,2013-02-27 20:54:00
11:54 AM,78.1,62.1,58,30.18,10.0,ENE,19.6,28.8,N/A,,Partly Cloudy,60,2013-02-27 21:54:00
12:54 PM,77.0,62.1,60,30.14,10.0,ENE,19.6,36.8,N/A,,Partly Cloudy,70,2013-02-27 22:54:00
1:54 PM,78.1,61.0,56,30.12,10.0,ENE,24.2,33.4,N/A,,Partly Cloudy,60,2013-02-27 23:54:00
2:54 PM,78.1,62.1,58,30.10,10.0,ENE,21.9,36.8,N/A,,Partly Cloudy,70,2013-02-28 00:54:00
3:54 PM,75.9,61.0,60,30.09,10.0,ENE,21.9,38.0,N/A,,Partly Cloudy,70,2013-02-28 01:54:00
4:54 PM,75.0,59.0,57,30.09,10.0,ENE,27.6,36.8,N/A,,Partly Cloudy,70,2013-02-28 02:54:00
5:54 PM,73.0,61.0,66,30.11,10.0,ENE,20.7,34.5,N/A,,Partly Cloudy,60,2013-02-28 03:54:00
6:54 PM,71.1,60.1,68,30.13,10.0,ENE,19.6,32.2,N/A,,Partly Cloudy,60,2013-02-28 04:54:00
7:54 PM,70.0,61.0,73,30.16,10.0,ENE,17.3,25.3,N/A,,Partly Cloudy,60,2013-02-28 05:54:00
8:54 PM,70.0,60.1,71,30.17,10.0,ENE,16.1,24.2,N/A,,Clear,60,2013-02-28 06:54:00
9:54 PM,70.0,61.0,73,30.19,10.0,NE,15.0,24.2,N/A,,Partly Cloudy,50,2013-02-28 07:54:00
10:54 PM,69.1,62.1,78,30.18,10.0,NE,15.0,-,N/A,,Partly Cloudy,50,2013-02-28 08:54:00
11:54 PM,70.0,61.0,73,30.17,10.0,NE,18.4,23.0,N/A,,Partly Cloudy,40,2013-02-28 09:54:00